Time;durP1;ratioP1;P1;durP2;ratioP2;P2;SDS_P1;SDS_P2;PMS_P1;PMS_P2;Temp;Humidity;BMP_temperature;BMP_pressure;BME280_temperature;BME280_humidity;BME280_pressure;Samples;Min_cycle;Max_cycle;Signal;HPM_P1;HPM_P2
2024/01/31 00:01:57;;;;;;;8.82;1.88;;;;;;;;;;5081300;28;20860;-84
2024/01/31 00:04:23;;;;;;;8.97;2.03;;;;;;;;;;5089843;28;20450;-84
2024/01/31 00:06:52;;;;;;;11.20;1.70;;;;;;;;;;5076044;28;20410;-84
2024/01/31 00:09:18;;;;;;;8.45;1.60;;;;;;;;;;5087420;28;20483;-84
2024/01/31 00:11:44;;;;;;;9.23;1.75;;;;;;;;;;5065286;28;20409;-84
2024/01/31 00:14:13;;;;;;;8.43;1.77;;;;;;;;;;5071848;28;20749;-84
2024/01/31 00:16:39;;;;;;;10.65;1.88;;;;;;;;;;5084872;28;20788;-84
2024/01/31 00:19:05;;;;;;;10.60;1.90;;;;;;;;;;5062946;28;20425;-84
2024/01/31 00:21:31;;;;;;;12.43;1.90;;;;;;;;;;5062640;28;20401;-84
2024/01/31 00:23:58;;;;;;;10.57;1.92;;;;;;;;;;5091940;28;20786;-84
2024/01/31 00:26:24;;;;;;;8.70;1.80;;;;;;;;;;5075556;28;20473;-84
2024/01/31 00:28:50;;;;;;;7.68;1.73;;;;;;;;;;5091715;28;20426;-84
2024/01/31 00:31:17;;;;;;;8.90;1.90;;;;;;;;;;5092375;28;20394;-84
2024/01/31 00:33:44;;;;;;;12.80;1.90;;;;;;;;;;5096223;28;20729;-84
2024/01/31 00:36:11;;;;;;;12.25;2.10;;;;;;;;;;5067588;28;20954;-84
2024/01/31 00:38:37;;;;;;;12.25;1.73;;;;;;;;;;5075383;28;20409;-84
2024/01/31 00:41:05;;;;;;;7.95;1.70;;;;;;;;;;5074636;28;20393;-84
2024/01/31 00:43:32;;;;;;;9.63;2.00;;;;;;;;;;5074885;28;20432;-84
2024/01/31 00:45:58;;;;;;;11.57;1.83;;;;;;;;;;5075041;28;20402;-83
2024/01/31 00:48:24;;;;;;;10.43;1.73;;;;;;;;;;5067280;28;20414;-84
2024/01/31 00:50:50;;;;;;;8.10;1.67;;;;;;;;;;5091959;28;20394;-84
2024/01/31 00:53:16;;;;;;;11.68;1.77;;;;;;;;;;5072778;28;20474;-84
2024/01/31 00:55:42;;;;;;;12.33;2.33;;;;;;;;;;5076846;28;20471;-84
2024/01/31 00:58:08;;;;;;;10.35;1.63;;;;;;;;;;5106792;28;20459;-83
2024/01/31 01:00:34;;;;;;;7.68;1.58;;;;;;;;;;5074704;28;20398;-84
2024/01/31 01:03:00;;;;;;;7.80;1.50;;;;;;;;;;5074775;28;20501;-84
2024/01/31 01:05:26;;;;;;;5.85;1.27;;;;;;;;;;5075854;28;20402;-84
2024/01/31 01:07:52;;;;;;;7.15;1.38;;;;;;;;;;5093609;28;20426;-84
2024/01/31 01:10:19;;;;;;;5.03;1.13;;;;;;;;;;5090267;28;20479;-84
2024/01/31 01:12:45;;;;;;;7.70;1.27;;;;;;;;;;5054622;28;20457;-84
2024/01/31 01:15:12;;;;;;;6.55;1.45;;;;;;;;;;5067932;28;20489;-84
2024/01/31 01:17:38;;;;;;;4.25;1.38;;;;;;;;;;5071154;28;20452;-84
2024/01/31 01:20:08;;;;;;;10.75;1.70;;;;;;;;;;5076031;28;20404;-84
2024/01/31 01:22:34;;;;;;;6.65;1.23;;;;;;;;;;5079632;28;20433;-84
2024/01/31 01:25:00;;;;;;;8.32;1.42;;;;;;;;;;5084935;28;20417;-84
2024/01/31 01:27:26;;;;;;;7.22;1.30;;;;;;;;;;5084304;28;20438;-84
2024/01/31 01:29:54;;;;;;;10.57;1.43;;;;;;;;;;5091104;28;20395;-84
2024/01/31 01:32:20;;;;;;;6.72;1.38;;;;;;;;;;5090048;28;20402;-84
2024/01/31 01:34:46;;;;;;;6.82;1.40;;;;;;;;;;5090287;28;20897;-84
2024/01/31 01:37:12;;;;;;;9.20;1.70;;;;;;;;;;5091064;28;20901;-84
2024/01/31 01:39:39;;;;;;;6.18;1.30;;;;;;;;;;5081714;28;20427;-84
2024/01/31 01:42:05;;;;;;;5.60;1.20;;;;;;;;;;5088250;28;20413;-84
2024/01/31 01:44:33;;;;;;;5.53;1.20;;;;;;;;;;5090417;28;20416;-84
2024/01/31 01:47:01;;;;;;;4.72;1.20;;;;;;;;;;5090847;28;20501;-84
2024/01/31 01:49:27;;;;;;;8.85;1.65;;;;;;;;;;5091134;28;20433;-84
2024/01/31 01:51:54;;;;;;;9.05;1.58;;;;;;;;;;5089700;28;20493;-84
2024/01/31 01:54:20;;;;;;;8.25;1.27;;;;;;;;;;5090146;28;20409;-84
2024/01/31 01:56:47;;;;;;;7.63;1.67;;;;;;;;;;5062456;28;20424;-84
2024/01/31 01:59:14;;;;;;;5.60;1.17;;;;;;;;;;5070814;28;20698;-84
2024/01/31 02:01:41;;;;;;;7.00;1.50;;;;;;;;;;5073208;28;20433;-84
2024/01/31 02:04:09;;;;;;;5.83;1.40;;;;;;;;;;5073473;28;20401;-84
2024/01/31 02:06:35;;;;;;;5.22;1.13;;;;;;;;;;5089706;28;20900;-84
2024/01/31 02:09:02;;;;;;;6.30;1.23;;;;;;;;;;5057039;28;20744;-84
2024/01/31 02:11:29;;;;;;;6.72;1.40;;;;;;;;;;5067614;28;20408;-84
2024/01/31 02:13:55;;;;;;;6.65;1.20;;;;;;;;;;5070528;28;20444;-84
2024/01/31 02:16:21;;;;;;;6.50;1.23;;;;;;;;;;5073662;28;20405;-84
2024/01/31 02:18:47;;;;;;;5.55;1.40;;;;;;;;;;5090259;28;20397;-84
2024/01/31 02:21:14;;;;;;;6.38;1.30;;;;;;;;;;5073476;28;20426;-84
2024/01/31 02:23:40;;;;;;;6.80;1.40;;;;;;;;;;5072706;28;20422;-84
2024/01/31 02:26:06;;;;;;;8.30;1.60;;;;;;;;;;5047953;28;20403;-84
2024/01/31 02:28:32;;;;;;;5.22;1.27;;;;;;;;;;5071043;28;20438;-84
2024/01/31 02:30:58;;;;;;;7.37;1.50;;;;;;;;;;5084849;28;20483;-85
2024/01/31 02:33:25;;;;;;;6.97;1.60;;;;;;;;;;5048232;28;20400;-84
2024/01/31 02:35:51;;;;;;;4.05;1.10;;;;;;;;;;5089376;28;20489;-84
2024/01/31 02:38:17;;;;;;;4.60;1.30;;;;;;;;;;5089953;28;20405;-85
2024/01/31 02:40:43;;;;;;;4.70;1.15;;;;;;;;;;5106295;28;20427;-85
2024/01/31 02:43:09;;;;;;;7.72;1.30;;;;;;;;;;5096414;28;20685;-84
2024/01/31 02:45:36;;;;;;;6.63;1.30;;;;;;;;;;5088488;28;20509;-85
2024/01/31 02:48:02;;;;;;;7.05;1.55;;;;;;;;;;5054644;28;20831;-84
2024/01/31 02:50:30;;;;;;;7.93;1.40;;;;;;;;;;5089515;28;20398;-84
2024/01/31 02:52:56;;;;;;;6.30;1.95;;;;;;;;;;5072521;28;20400;-84
2024/01/31 02:55:22;;;;;;;5.68;1.52;;;;;;;;;;5070150;28;20421;-84
2024/01/31 02:57:49;;;;;;;5.95;1.30;;;;;;;;;;5086723;28;20815;-84
2024/01/31 03:00:15;;;;;;;10.43;1.33;;;;;;;;;;5090181;28;20397;-84
2024/01/31 03:02:43;;;;;;;7.35;1.33;;;;;;;;;;5073088;28;20909;-84
2024/01/31 03:05:09;;;;;;;7.68;1.17;;;;;;;;;;5101931;28;20408;-84
2024/01/31 03:07:35;;;;;;;5.50;1.45;;;;;;;;;;5101398;28;20478;-84
2024/01/31 03:10:02;;;;;;;8.13;1.30;;;;;;;;;;5078700;28;20400;-84
2024/01/31 03:12:28;;;;;;;8.88;1.90;;;;;;;;;;5086810;28;20551;-84
2024/01/31 03:14:54;;;;;;;7.43;1.55;;;;;;;;;;5072960;28;20500;-83
2024/01/31 03:17:20;;;;;;;6.75;1.58;;;;;;;;;;5073142;28;20397;-83
2024/01/31 03:19:46;;;;;;;5.40;1.40;;;;;;;;;;5088520;28;20469;-83
2024/01/31 03:22:12;;;;;;;7.97;1.45;;;;;;;;;;5071484;28;20790;-84
2024/01/31 03:24:38;;;;;;;5.55;1.30;;;;;;;;;;5063818;28;20506;-84
2024/01/31 03:27:05;;;;;;;7.53;1.38;;;;;;;;;;5071239;28;20400;-84
2024/01/31 03:29:31;;;;;;;8.88;1.75;;;;;;;;;;5089255;28;20887;-84
2024/01/31 03:31:58;;;;;;;6.67;1.90;;;;;;;;;;5089713;28;20475;-84
2024/01/31 03:34:24;;;;;;;6.53;1.50;;;;;;;;;;5084610;28;20400;-84
2024/01/31 03:36:50;;;;;;;5.15;1.48;;;;;;;;;;5073070;28;20895;-84
2024/01/31 03:39:18;;;;;;;8.15;1.40;;;;;;;;;;5074610;28;20788;-83
2024/01/31 03:41:45;;;;;;;6.30;1.73;;;;;;;;;;5090373;28;20409;-85
2024/01/31 03:44:13;;;;;;;4.70;1.42;;;;;;;;;;5081022;28;20485;-83
2024/01/31 03:46:39;;;;;;;4.30;1.33;;;;;;;;;;5092917;28;20418;-83
2024/01/31 03:49:05;;;;;;;6.55;1.50;;;;;;;;;;5075231;28;20398;-84
2024/01/31 03:51:31;;;;;;;6.78;1.35;;;;;;;;;;5073326;28;20893;-83
2024/01/31 03:53:57;;;;;;;6.67;1.37;;;;;;;;;;5075109;28;20439;-84
2024/01/31 03:56:23;;;;;;;5.18;1.25;;;;;;;;;;5074915;28;20425;-84
2024/01/31 03:58:49;;;;;;;7.78;1.48;;;;;;;;;;5075975;28;20402;-84
2024/01/31 04:01:16;;;;;;;5.87;1.30;;;;;;;;;;5089875;28;20394;-84
2024/01/31 04:03:42;;;;;;;4.75;1.23;;;;;;;;;;5061100;28;20513;-84
2024/01/31 04:06:08;;;;;;;6.22;1.35;;;;;;;;;;5072717;28;20488;-84
2024/01/31 04:08:35;;;;;;;5.15;1.20;;;;;;;;;;5067053;28;20394;-84
2024/01/31 04:11:01;;;;;;;6.38;1.45;;;;;;;;;;5074010;28;20426;-84
2024/01/31 04:13:27;;;;;;;7.63;1.43;;;;;;;;;;5083819;28;20478;-84
2024/01/31 04:15:53;;;;;;;4.10;1.23;;;;;;;;;;5092237;28;20418;-84
2024/01/31 04:18:19;;;;;;;4.85;1.27;;;;;;;;;;5089334;28;20934;-84
2024/01/31 04:20:46;;;;;;;6.38;1.42;;;;;;;;;;5063084;28;20759;-84
2024/01/31 04:23:12;;;;;;;5.53;1.27;;;;;;;;;;5080574;28;20418;-84
2024/01/31 04:25:38;;;;;;;4.35;1.17;;;;;;;;;;5096784;28;20396;-84
2024/01/31 04:28:04;;;;;;;3.97;1.20;;;;;;;;;;5057537;28;20481;-84
2024/01/31 04:30:30;;;;;;;4.72;1.10;;;;;;;;;;5092213;28;20451;-84
2024/01/31 04:33:00;;;;;;;5.00;1.35;;;;;;;;;;5069909;28;20407;-83
2024/01/31 04:35:26;;;;;;;5.30;1.50;;;;;;;;;;5087182;28;20401;-84
2024/01/31 04:37:52;;;;;;;4.65;1.17;;;;;;;;;;5091668;28;20402;-84
2024/01/31 04:40:18;;;;;;;5.45;1.20;;;;;;;;;;5092075;28;20410;-84
2024/01/31 04:42:46;;;;;;;7.35;1.30;;;;;;;;;;5058607;28;20422;-83
2024/01/31 04:45:13;;;;;;;5.13;1.30;;;;;;;;;;5099660;28;20481;-84
2024/01/31 04:47:41;;;;;;;5.95;1.60;;;;;;;;;;5105658;28;20417;-84
2024/01/31 04:50:07;;;;;;;5.00;1.30;;;;;;;;;;5074592;28;20889;-84
2024/01/31 04:52:33;;;;;;;6.82;1.40;;;;;;;;;;5074672;28;20401;-83
2024/01/31 04:54:59;;;;;;;4.32;1.85;;;;;;;;;;5075070;28;20497;-84
2024/01/31 04:57:26;;;;;;;5.32;1.27;;;;;;;;;;5072404;28;20471;-84
2024/01/31 04:59:52;;;;;;;4.68;1.40;;;;;;;;;;5073615;28;20426;-84
2024/01/31 05:02:18;;;;;;;6.63;1.50;;;;;;;;;;5073025;28;20426;-84
2024/01/31 05:04:44;;;;;;;7.03;1.88;;;;;;;;;;5075103;28;20408;-84
2024/01/31 05:07:10;;;;;;;5.03;1.52;;;;;;;;;;5089966;28;20398;-84
2024/01/31 05:09:36;;;;;;;5.40;1.85;;;;;;;;;;5074537;28;20452;-84
2024/01/31 05:12:02;;;;;;;7.97;1.67;;;;;;;;;;5094026;28;20778;-84
2024/01/31 05:14:29;;;;;;;12.18;1.80;;;;;;;;;;5091519;28;20950;-84
2024/01/31 05:16:55;;;;;;;6.20;1.60;;;;;;;;;;5073607;28;20410;-84
2024/01/31 05:19:21;;;;;;;6.68;1.48;;;;;;;;;;5091458;28;20402;-84
2024/01/31 05:21:47;;;;;;;6.32;1.77;;;;;;;;;;5079086;28;20408;-84
2024/01/31 05:24:18;;;;;;;7.95;1.70;;;;;;;;;;5071194;28;20396;-83
2024/01/31 05:26:44;;;;;;;6.90;1.70;;;;;;;;;;5079997;28;20485;-83
2024/01/31 05:29:10;;;;;;;6.40;1.70;;;;;;;;;;5046683;28;20410;-84
2024/01/31 05:31:37;;;;;;;5.57;1.58;;;;;;;;;;5080633;28;20414;-84
2024/01/31 05:34:03;;;;;;;6.53;1.90;;;;;;;;;;5075056;28;20433;-85
2024/01/31 05:36:29;;;;;;;7.15;2.10;;;;;;;;;;5087312;28;20413;-84
2024/01/31 05:38:55;;;;;;;8.70;2.55;;;;;;;;;;5069005;28;20402;-84
2024/01/31 05:41:21;;;;;;;7.45;1.90;;;;;;;;;;5064524;28;20402;-85
2024/01/31 05:43:48;;;;;;;7.13;1.90;;;;;;;;;;5090169;28;20422;-85
2024/01/31 05:46:17;;;;;;;6.65;1.63;;;;;;;;;;5055962;28;20412;-84
2024/01/31 05:48:47;;;;;;;7.32;2.50;;;;;;;;;;5092681;28;20419;-85
2024/01/31 05:51:13;;;;;;;9.23;1.73;;;;;;;;;;5081867;28;20749;-84
2024/01/31 05:53:40;;;;;;;7.68;1.77;;;;;;;;;;5093349;28;20405;-84
2024/01/31 05:56:06;;;;;;;8.63;2.00;;;;;;;;;;5092718;28;20405;-84
2024/01/31 05:58:33;;;;;;;6.32;1.67;;;;;;;;;;5057208;28;20408;-84
2024/01/31 06:01:00;;;;;;;8.02;1.92;;;;;;;;;;5075173;28;20402;-84
2024/01/31 06:03:28;;;;;;;7.07;2.10;;;;;;;;;;5073093;28;20422;-84
2024/01/31 06:05:54;;;;;;;6.07;1.80;;;;;;;;;;5073702;28;20475;-84
2024/01/31 06:08:23;;;;;;;8.00;1.88;;;;;;;;;;5075880;28;20414;-84
2024/01/31 06:11:02;;;;;;;9.60;2.45;;;;;;;;;;5075381;28;20405;-83
2024/01/31 06:13:29;;;;;;;7.00;1.80;;;;;;;;;;5089281;28;20409;-84
2024/01/31 06:15:55;;;;;;;7.85;1.88;;;;;;;;;;5075588;28;20406;-83
2024/01/31 06:18:22;;;;;;;6.68;2.08;;;;;;;;;;5092301;28;20434;-84
2024/01/31 06:20:48;;;;;;;11.63;3.55;;;;;;;;;;5071952;28;20431;-84
2024/01/31 06:23:15;;;;;;;7.63;2.70;;;;;;;;;;5053662;28;20447;-84
2024/01/31 06:25:41;;;;;;;9.52;3.90;;;;;;;;;;5090789;28;20890;-84
2024/01/31 06:28:07;;;;;;;6.63;1.70;;;;;;;;;;5068335;28;20450;-84
2024/01/31 06:30:48;;;;;;;8.07;2.05;;;;;;;;;;5081802;28;20420;-84
2024/01/31 06:33:17;;;;;;;9.10;1.80;;;;;;;;;;5091927;28;20489;-84
2024/01/31 06:35:43;;;;;;;16.83;2.20;;;;;;;;;;5057044;28;20407;-84
2024/01/31 06:38:09;;;;;;;6.72;2.20;;;;;;;;;;5075918;28;20406;-84
2024/01/31 06:40:36;;;;;;;7.90;1.88;;;;;;;;;;5075117;28;20413;-84
2024/01/31 06:43:02;;;;;;;7.57;1.88;;;;;;;;;;5074117;28;20433;-84
2024/01/31 06:45:28;;;;;;;6.40;2.00;;;;;;;;;;5074545;28;20410;-84
2024/01/31 06:47:55;;;;;;;9.10;2.05;;;;;;;;;;5053993;28;20525;-84
2024/01/31 06:50:21;;;;;;;8.43;2.50;;;;;;;;;;5081026;28;20427;-84
2024/01/31 06:52:47;;;;;;;12.52;1.92;;;;;;;;;;5081164;28;20937;-84
2024/01/31 06:55:14;;;;;;;10.57;1.85;;;;;;;;;;5074549;28;20414;-84
2024/01/31 06:57:40;;;;;;;6.80;2.00;;;;;;;;;;5061824;28;20460;-84
2024/01/31 07:00:10;;;;;;;7.40;2.00;;;;;;;;;;5087830;28;20398;-84
2024/01/31 07:02:36;;;;;;;8.27;2.10;;;;;;;;;;5093454;28;20413;-83
2024/01/31 07:05:04;;;;;;;12.60;1.95;;;;;;;;;;5074602;28;20437;-84
2024/01/31 07:07:30;;;;;;;7.95;1.80;;;;;;;;;;5075323;28;20402;-84
2024/01/31 07:09:56;;;;;;;8.55;2.03;;;;;;;;;;5073784;28;20399;-84
2024/01/31 07:12:22;;;;;;;8.85;2.00;;;;;;;;;;5089298;28;20765;-84
2024/01/31 07:14:48;;;;;;;8.57;2.42;;;;;;;;;;5094749;28;20409;-84
2024/01/31 07:17:14;;;;;;;9.65;1.85;;;;;;;;;;5095487;28;20426;-84
2024/01/31 07:19:43;;;;;;;8.27;2.08;;;;;;;;;;5058241;28;20404;-85
2024/01/31 07:22:12;;;;;;;6.70;2.38;;;;;;;;;;5083834;28;20420;-83
2024/01/31 07:24:38;;;;;;;8.07;2.40;;;;;;;;;;5095165;28;20961;-84
2024/01/31 07:27:05;;;;;;;8.40;2.03;;;;;;;;;;5070379;28;20396;-84
2024/01/31 07:29:31;;;;;;;5.88;2.28;;;;;;;;;;5081462;28;20918;-84
2024/01/31 07:31:57;;;;;;;8.55;2.72;;;;;;;;;;5071156;28;20861;-83
2024/01/31 07:34:23;;;;;;;9.25;2.63;;;;;;;;;;5085932;28;20433;-84
2024/01/31 07:36:49;;;;;;;10.55;3.13;;;;;;;;;;5093108;28;20434;-84
2024/01/31 07:39:15;;;;;;;11.80;4.22;;;;;;;;;;5081840;28;20493;-82
2024/01/31 07:41:44;;;;;;;11.33;3.90;;;;;;;;;;5061849;28;20399;-83
2024/01/31 07:44:10;;;;;;;10.20;2.53;;;;;;;;;;5086702;28;20398;-83
2024/01/31 07:46:36;;;;;;;8.68;2.33;;;;;;;;;;5069724;28;20897;-83
2024/01/31 07:49:08;;;;;;;9.13;2.90;;;;;;;;;;5086404;28;20756;-83
2024/01/31 07:51:41;;;;;;;11.40;3.35;;;;;;;;;;5084965;28;20396;-83
2024/01/31 07:54:07;;;;;;;8.73;3.55;;;;;;;;;;5087890;28;20867;-83
2024/01/31 07:56:33;;;;;;;9.95;2.58;;;;;;;;;;5076680;28;20970;-83
2024/01/31 07:58:59;;;;;;;7.25;2.75;;;;;;;;;;5067693;28;20891;-83
2024/01/31 08:01:25;;;;;;;10.63;3.08;;;;;;;;;;5076584;28;20494;-83
2024/01/31 08:03:51;;;;;;;8.13;3.38;;;;;;;;;;5092062;28;20933;-83
2024/01/31 08:06:17;;;;;;;8.40;3.70;;;;;;;;;;5070889;28;20418;-83
2024/01/31 08:08:45;;;;;;;7.50;3.30;;;;;;;;;;5075791;28;20916;-82
2024/01/31 08:11:11;;;;;;;8.38;3.25;;;;;;;;;;5087870;28;20471;-83
2024/01/31 08:13:39;;;;;;;6.97;3.70;;;;;;;;;;5073755;28;20477;-83
2024/01/31 08:16:06;;;;;;;11.57;4.60;;;;;;;;;;5076005;28;20409;-83
2024/01/31 08:18:32;;;;;;;8.70;3.97;;;;;;;;;;5075736;28;20402;-83
2024/01/31 08:20:58;;;;;;;7.43;3.40;;;;;;;;;;5075565;28;20451;-83
2024/01/31 08:23:24;;;;;;;8.40;3.92;;;;;;;;;;5079176;28;20496;-83
2024/01/31 08:25:50;;;;;;;10.45;4.22;;;;;;;;;;5085212;28;20442;-83
2024/01/31 08:28:16;;;;;;;11.05;3.97;;;;;;;;;;5095309;28;20434;-83
2024/01/31 08:30:42;;;;;;;9.60;3.83;;;;;;;;;;5087850;28;20488;-83
2024/01/31 08:33:09;;;;;;;8.30;4.00;;;;;;;;;;5089271;28;20434;-83
2024/01/31 08:35:35;;;;;;;9.25;4.70;;;;;;;;;;5059091;28;20479;-83
2024/01/31 08:38:01;;;;;;;8.50;4.30;;;;;;;;;;5101700;28;20427;-83
2024/01/31 08:40:27;;;;;;;7.88;4.30;;;;;;;;;;5086993;28;20409;-83
2024/01/31 08:42:58;;;;;;;11.77;5.27;;;;;;;;;;5070214;28;20770;-82
2024/01/31 08:45:24;;;;;;;8.98;5.30;;;;;;;;;;5075596;28;20421;-82
2024/01/31 08:47:50;;;;;;;9.65;4.72;;;;;;;;;;5083612;28;20752;-82
2024/01/31 08:50:16;;;;;;;8.95;4.97;;;;;;;;;;5083119;28;20424;-83
2024/01/31 08:52:42;;;;;;;9.48;4.82;;;;;;;;;;5085614;28;20405;-82
2024/01/31 08:55:10;;;;;;;9.05;4.88;;;;;;;;;;5059923;28;20891;-82
2024/01/31 08:57:36;;;;;;;9.05;5.10;;;;;;;;;;5095687;28;20421;-83
2024/01/31 09:00:04;;;;;;;7.90;4.78;;;;;;;;;;5076571;28;20485;-81
2024/01/31 09:02:30;;;;;;;10.07;4.95;;;;;;;;;;5072805;28;20474;-80
2024/01/31 09:04:56;;;;;;;9.70;5.00;;;;;;;;;;5081937;28;20514;-80
2024/01/31 09:07:22;;;;;;;10.45;5.20;;;;;;;;;;5066957;28;20476;-80
2024/01/31 09:09:49;;;;;;;14.75;5.30;;;;;;;;;;5057511;28;20394;-80
2024/01/31 09:12:19;;;;;;;10.85;6.00;;;;;;;;;;5074304;28;20424;-80
2024/01/31 09:14:45;;;;;;;9.97;6.10;;;;;;;;;;5066965;28;20437;-80
2024/01/31 09:17:11;;;;;;;9.20;5.80;;;;;;;;;;5080190;28;20403;-80
2024/01/31 09:19:37;;;;;;;9.05;5.90;;;;;;;;;;5087927;28;20410;-80
2024/01/31 09:22:04;;;;;;;7.90;5.80;;;;;;;;;;5078441;28;20462;-80
2024/01/31 09:24:30;;;;;;;9.52;6.20;;;;;;;;;;5065249;28;20405;-80
2024/01/31 09:27:10;;;;;;;10.38;6.10;;;;;;;;;;5101284;27;20423;-79
2024/01/31 09:29:36;;;;;;;9.98;6.43;;;;;;;;;;5084452;28;20457;-80
2024/01/31 09:32:05;;;;;;;9.70;6.22;;;;;;;;;;5087325;28;20403;-79
2024/01/31 09:34:31;;;;;;;11.23;6.63;;;;;;;;;;5063863;28;20411;-80
2024/01/31 09:36:57;;;;;;;11.32;6.68;;;;;;;;;;5085235;28;20407;-80
2024/01/31 09:39:24;;;;;;;11.45;6.65;;;;;;;;;;5069718;28;20398;-80
2024/01/31 09:41:50;;;;;;;10.13;6.53;;;;;;;;;;5085723;28;20441;-80
2024/01/31 09:44:17;;;;;;;9.68;6.38;;;;;;;;;;5083679;28;20411;-79
2024/01/31 09:46:43;;;;;;;11.65;6.35;;;;;;;;;;5061413;28;20423;-80
2024/01/31 09:49:09;;;;;;;10.63;6.82;;;;;;;;;;5084652;28;20463;-80
2024/01/31 09:51:37;;;;;;;11.07;6.75;;;;;;;;;;5086268;28;20486;-80
2024/01/31 09:54:03;;;;;;;10.65;7.15;;;;;;;;;;5068666;28;20406;-80
2024/01/31 09:56:31;;;;;;;9.38;6.50;;;;;;;;;;5060480;28;20422;-80
2024/01/31 09:58:58;;;;;;;9.55;6.28;;;;;;;;;;5086330;28;20435;-80
2024/01/31 10:01:26;;;;;;;12.93;6.72;;;;;;;;;;5067063;28;20403;-81
2024/01/31 10:03:52;;;;;;;10.25;6.70;;;;;;;;;;5084046;28;20501;-80
2024/01/31 10:06:21;;;;;;;9.25;6.65;;;;;;;;;;5069074;28;20918;-80
2024/01/31 10:08:48;;;;;;;11.45;7.80;;;;;;;;;;5069314;28;20395;-80
2024/01/31 10:11:14;;;;;;;10.35;6.70;;;;;;;;;;5069596;28;20398;-80
2024/01/31 10:13:40;;;;;;;9.90;7.07;;;;;;;;;;5084477;28;20493;-80
2024/01/31 10:16:07;;;;;;;10.60;7.43;;;;;;;;;;5062538;28;20910;-80
2024/01/31 10:18:33;;;;;;;8.83;6.77;;;;;;;;;;5060113;28;20747;-81
2024/01/31 10:20:59;;;;;;;11.90;7.13;;;;;;;;;;5084458;28;20407;-80
2024/01/31 10:23:25;;;;;;;9.95;6.72;;;;;;;;;;5069205;28;20406;-80
2024/01/31 10:25:52;;;;;;;10.13;6.88;;;;;;;;;;5058662;28;20438;-81
2024/01/31 10:28:21;;;;;;;8.63;6.75;;;;;;;;;;5077513;28;20480;-81
2024/01/31 10:30:48;;;;;;;9.38;6.70;;;;;;;;;;5071187;28;20916;-81
2024/01/31 10:33:14;;;;;;;8.60;6.38;;;;;;;;;;5064832;28;20464;-81
2024/01/31 10:35:42;;;;;;;10.85;6.65;;;;;;;;;;5076346;28;20493;-81
2024/01/31 10:38:09;;;;;;;9.33;6.27;;;;;;;;;;5063875;28;20526;-81
2024/01/31 10:40:36;;;;;;;10.15;6.45;;;;;;;;;;5067967;28;20412;-81
2024/01/31 10:43:03;;;;;;;9.15;6.93;;;;;;;;;;5052624;28;20926;-81
2024/01/31 10:45:31;;;;;;;10.93;6.95;;;;;;;;;;5049804;28;20527;-81
2024/01/31 10:47:57;;;;;;;12.35;7.00;;;;;;;;;;5067977;28;20400;-81
2024/01/31 10:50:23;;;;;;;9.40;7.10;;;;;;;;;;5064306;28;20433;-81
2024/01/31 10:52:51;;;;;;;11.82;7.72;;;;;;;;;;5038313;28;20401;-81
2024/01/31 10:55:17;;;;;;;9.80;7.32;;;;;;;;;;5057214;28;20436;-81
2024/01/31 10:57:45;;;;;;;11.90;7.22;;;;;;;;;;5049337;28;20408;-81
2024/01/31 11:00:22;;;;;;;11.00;7.25;;;;;;;;;;5066910;28;20424;-81
2024/01/31 11:02:48;;;;;;;8.88;6.53;;;;;;;;;;5047864;28;20432;-81
2024/01/31 11:05:14;;;;;;;10.63;6.63;;;;;;;;;;5061633;28;20484;-81
2024/01/31 11:07:45;;;;;;;10.30;6.50;;;;;;;;;;5060835;28;20401;-81
2024/01/31 11:10:20;;;;;;;9.10;6.13;;;;;;;;;;5062839;28;20866;-81
2024/01/31 11:13:05;;;;;;;11.57;6.28;;;;;;;;;;5037034;28;20428;-81
2024/01/31 11:15:33;;;;;;;11.95;5.90;;;;;;;;;;5033530;28;20454;-81
2024/01/31 11:18:08;;;;;;;9.63;6.10;;;;;;;;;;5059738;28;20409;-81
2024/01/31 11:20:36;;;;;;;7.97;5.20;;;;;;;;;;5062933;28;20498;-80
2024/01/31 11:23:05;;;;;;;8.68;5.55;;;;;;;;;;5056472;28;20442;-80
2024/01/31 11:25:35;;;;;;;7.80;5.30;;;;;;;;;;5065542;28;20494;-81
2024/01/31 11:28:03;;;;;;;7.85;5.40;;;;;;;;;;5066466;28;20463;-81
2024/01/31 11:30:29;;;;;;;8.90;5.53;;;;;;;;;;5071880;28;20919;-81
2024/01/31 11:32:55;;;;;;;9.07;6.20;;;;;;;;;;5070741;28;20421;-81
2024/01/31 11:35:25;;;;;;;8.82;6.07;;;;;;;;;;5077170;28;20478;-81
2024/01/31 11:37:52;;;;;;;8.30;6.20;;;;;;;;;;5055783;28;20447;-81
2024/01/31 11:40:19;;;;;;;10.43;6.53;;;;;;;;;;5084286;28;20402;-81
2024/01/31 11:42:45;;;;;;;9.30;6.60;;;;;;;;;;5055284;28;20457;-81
2024/01/31 11:45:11;;;;;;;9.60;7.10;;;;;;;;;;5072082;28;20450;-82
2024/01/31 11:47:39;;;;;;;8.77;6.57;;;;;;;;;;5074874;28;20426;-81
2024/01/31 11:50:07;;;;;;;10.90;7.10;;;;;;;;;;5055479;28;20755;-81
2024/01/31 11:52:33;;;;;;;10.73;6.93;;;;;;;;;;5074834;28;20489;-81
2024/01/31 11:54:59;;;;;;;10.13;6.90;;;;;;;;;;5086109;28;20781;-82
2024/01/31 11:57:26;;;;;;;9.98;6.72;;;;;;;;;;5083862;28;20464;-82
2024/01/31 11:59:53;;;;;;;10.77;6.90;;;;;;;;;;5058838;28;20779;-82
2024/01/31 12:02:19;;;;;;;7.80;5.97;;;;;;;;;;5071762;28;20781;-82
2024/01/31 12:04:56;;;;;;;8.88;6.43;;;;;;;;;;5061373;28;20980;-82
2024/01/31 12:07:22;;;;;;;8.45;6.35;;;;;;;;;;5071236;28;20415;-82
2024/01/31 12:09:48;;;;;;;8.30;6.55;;;;;;;;;;5088505;28;20946;-82
2024/01/31 12:12:15;;;;;;;8.98;6.43;;;;;;;;;;5073605;28;20394;-82
2024/01/31 12:14:42;;;;;;;8.68;6.70;;;;;;;;;;5067606;28;20923;-82
2024/01/31 12:17:24;;;;;;;9.77;6.82;;;;;;;;;;5064393;28;20424;-82
2024/01/31 12:19:50;;;;;;;8.98;6.70;;;;;;;;;;5071564;28;20425;-83
2024/01/31 12:22:17;;;;;;;11.23;7.25;;;;;;;;;;5071161;28;20447;-82
2024/01/31 12:24:44;;;;;;;9.25;7.15;;;;;;;;;;5073419;28;20394;-82
2024/01/31 12:27:10;;;;;;;11.18;6.95;;;;;;;;;;5088774;28;20458;-82
2024/01/31 12:29:36;;;;;;;10.73;7.20;;;;;;;;;;5066548;28;20886;-82
2024/01/31 12:32:02;;;;;;;9.27;7.22;;;;;;;;;;5070900;28;20406;-82
2024/01/31 12:34:28;;;;;;;10.57;7.45;;;;;;;;;;5082749;28;20424;-82
2024/01/31 12:36:55;;;;;;;8.77;6.72;;;;;;;;;;5073823;28;20459;-83
2024/01/31 12:39:21;;;;;;;11.75;7.35;;;;;;;;;;5071413;28;20428;-82
2024/01/31 12:41:47;;;;;;;11.23;8.20;;;;;;;;;;5085893;28;20402;-83
2024/01/31 12:44:13;;;;;;;10.98;7.60;;;;;;;;;;5067747;28;20403;-82
2024/01/31 12:46:40;;;;;;;12.30;8.48;;;;;;;;;;5090249;28;20409;-83
2024/01/31 12:49:06;;;;;;;11.30;8.10;;;;;;;;;;5082705;28;21004;-82
2024/01/31 12:51:32;;;;;;;11.25;8.45;;;;;;;;;;5075197;28;20391;-83
2024/01/31 12:53:58;;;;;;;11.80;8.52;;;;;;;;;;5090144;28;20466;-82
2024/01/31 12:56:24;;;;;;;12.10;8.93;;;;;;;;;;5086841;28;20468;-83
2024/01/31 12:58:50;;;;;;;13.35;9.70;;;;;;;;;;5083668;28;20395;-83
2024/01/31 13:01:19;;;;;;;12.10;9.32;;;;;;;;;;5090061;28;20426;-83
2024/01/31 13:03:45;;;;;;;12.95;9.52;;;;;;;;;;5064829;28;20398;-83
2024/01/31 13:06:11;;;;;;;13.65;9.55;;;;;;;;;;5058908;28;20919;-83
2024/01/31 13:08:37;;;;;;;11.65;9.40;;;;;;;;;;5084292;28;20972;-83
2024/01/31 13:11:03;;;;;;;14.85;10.27;;;;;;;;;;5062212;28;20493;-83
2024/01/31 13:13:29;;;;;;;14.03;10.40;;;;;;;;;;5060688;28;20396;-82
2024/01/31 13:15:56;;;;;;;12.43;9.80;;;;;;;;;;5083120;28;20402;-83
2024/01/31 13:18:22;;;;;;;13.00;9.60;;;;;;;;;;5067366;28;20433;-82
2024/01/31 13:20:49;;;;;;;13.40;9.40;;;;;;;;;;5056243;28;20420;-83
2024/01/31 13:23:16;;;;;;;12.87;9.23;;;;;;;;;;5083225;28;20431;-82
2024/01/31 13:25:42;;;;;;;12.65;8.98;;;;;;;;;;5083624;28;20440;-81
2024/01/31 13:28:08;;;;;;;12.52;8.50;;;;;;;;;;5083850;28;20455;-81
2024/01/31 13:30:34;;;;;;;11.10;8.40;;;;;;;;;;5086300;28;20410;-81
2024/01/31 13:33:00;;;;;;;12.32;8.40;;;;;;;;;;5081841;28;20410;-81
2024/01/31 13:35:26;;;;;;;12.23;8.00;;;;;;;;;;5083629;28;20405;-81
2024/01/31 13:37:54;;;;;;;10.93;7.65;;;;;;;;;;5068668;28;20405;-81
2024/01/31 13:40:20;;;;;;;9.43;6.90;;;;;;;;;;5066636;28;20394;-81
2024/01/31 13:42:50;;;;;;;10.98;7.50;;;;;;;;;;5081488;28;20417;-81
2024/01/31 13:45:16;;;;;;;8.82;7.10;;;;;;;;;;5086253;28;20430;-81
2024/01/31 13:47:42;;;;;;;10.75;7.40;;;;;;;;;;5083572;28;20968;-82
2024/01/31 13:50:09;;;;;;;10.85;7.43;;;;;;;;;;5067727;28;20414;-82
2024/01/31 13:52:35;;;;;;;12.13;7.72;;;;;;;;;;5065278;28;20420;-82
2024/01/31 13:55:01;;;;;;;10.68;7.65;;;;;;;;;;5049512;28;20737;-82
2024/01/31 13:57:27;;;;;;;11.63;8.27;;;;;;;;;;5053964;28;20437;-82
2024/01/31 13:59:54;;;;;;;11.55;8.20;;;;;;;;;;5063331;28;20396;-82
2024/01/31 14:02:20;;;;;;;12.30;7.47;;;;;;;;;;5082948;28;20463;-81
2024/01/31 14:04:46;;;;;;;11.18;8.10;;;;;;;;;;5070950;28;20473;-81
2024/01/31 14:07:12;;;;;;;10.65;7.85;;;;;;;;;;5080621;28;20428;-81
2024/01/31 14:09:38;;;;;;;11.75;8.15;;;;;;;;;;5085073;28;20390;-81
2024/01/31 14:12:06;;;;;;;12.68;8.77;;;;;;;;;;5078800;28;20409;-80
2024/01/31 14:14:32;;;;;;;12.20;8.60;;;;;;;;;;5073709;28;20423;-80
2024/01/31 14:17:00;;;;;;;12.68;8.60;;;;;;;;;;5063179;28;20502;-80
2024/01/31 14:19:27;;;;;;;12.35;8.48;;;;;;;;;;5070406;28;20404;-80
2024/01/31 14:21:53;;;;;;;12.40;9.27;;;;;;;;;;5066958;28;20414;-80
2024/01/31 14:24:19;;;;;;;12.35;8.95;;;;;;;;;;5074604;28;20401;-83
2024/01/31 14:26:46;;;;;;;13.23;9.90;;;;;;;;;;5093400;28;20430;-84
2024/01/31 14:29:13;;;;;;;13.30;9.63;;;;;;;;;;5085211;28;20482;-84
2024/01/31 14:31:43;;;;;;;16.88;10.52;;;;;;;;;;5069969;28;20841;-84
2024/01/31 14:34:09;;;;;;;14.95;10.52;;;;;;;;;;5068850;28;20414;-84
2024/01/31 14:36:42;;;;;;;13.65;10.20;;;;;;;;;;5089604;28;20417;-84